createdAt,value
2019-03-10T00:00:55.044Z,96440.98
2019-03-10T00:06:37.355Z,96436.39
2019-03-10T00:09:45.697Z,96443.53
2019-03-10T00:12:14.098Z,96442.88
2019-03-10T00:14:42.492Z,96445.38
2019-03-10T00:17:10.975Z,96442.92
2019-03-10T00:19:39.322Z,96463.30
2019-03-10T00:22:27.069Z,96453.53
2019-03-10T00:24:55.478Z,96468.60
2019-03-10T00:27:23.872Z,96463.47
2019-03-10T00:32:26.268Z,96467.64
2019-03-10T00:37:28.601Z,96468.80
2019-03-10T00:40:35.689Z,96461.70
2019-03-10T00:43:42.677Z,96466.35
2019-03-10T00:46:49.703Z,96458.26
2019-03-10T00:49:56.699Z,96452.13
2019-03-10T00:53:05.051Z,96437.20
2019-03-10T00:55:52.764Z,96432.95
2019-03-10T01:00:55.546Z,96419.55
2019-03-10T01:03:43.284Z,96413.94
2019-03-10T01:06:11.673Z,96408.46
2019-03-10T01:08:40.072Z,96404.86
2019-03-10T01:14:22.559Z,96390.78
2019-03-10T01:20:24.969Z,96376.23
2019-03-10T01:22:53.354Z,96374.91
2019-03-10T01:25:21.756Z,96358.69
2019-03-10T01:28:09.475Z,96349.89
2019-03-10T01:31:17.790Z,96344.11
2019-03-10T01:34:26.128Z,96331.98
2019-03-10T01:37:13.718Z,96330.52
2019-03-10T01:42:16.414Z,96302.50
2019-03-10T01:47:18.725Z,96314.09
2019-03-10T01:49:47.156Z,96309.77
2019-03-10T01:52:15.549Z,96296.01
2019-03-10T01:54:43.948Z,96275.81
2019-03-10T01:57:12.387Z,96277.14
2019-03-10T01:59:40.770Z,96270.17
2019-03-10T02:02:09.158Z,96268.03
2019-03-10T02:07:11.205Z,96264.73
2019-03-10T02:12:13.372Z,96242.08
2019-03-10T02:14:41.820Z,96238.28
2019-03-10T02:17:10.204Z,96238.28
2019-03-10T02:19:38.601Z,96234.30
2019-03-10T02:22:07.082Z,96232.33
2019-03-10T02:25:15.393Z,96227.71
2019-03-10T02:27:43.825Z,96234.34
2019-03-10T02:30:31.554Z,96234.52
2019-03-10T02:35:33.795Z,96217.62
2019-03-10T02:38:02.193Z,96213.66
2019-03-10T02:40:30.625Z,96211.34
2019-03-10T02:42:59.019Z,96212.49
2019-03-10T02:45:27.423Z,96206.52
2019-03-10T02:47:55.847Z,96215.48
2019-03-10T02:50:43.437Z,96217.32
2019-03-10T02:55:45.738Z,96223.72
2019-03-10T02:58:14.159Z,96214.66
2019-03-10T03:00:42.563Z,96205.92
2019-03-10T03:03:11.029Z,96212.41
2019-03-10T03:05:39.461Z,96212.11
2019-03-10T03:08:07.853Z,96207.69
2019-03-10T03:10:36.261Z,96220.63
2019-03-10T03:13:04.698Z,96226.80
2019-03-10T03:15:33.102Z,96239.59
2019-03-10T03:18:01.501Z,96243.11
2019-03-10T03:20:29.931Z,96248.12
2019-03-10T03:22:58.319Z,96231.94
2019-03-10T03:25:26.721Z,96242.27
2019-03-10T03:30:48.153Z,96239.84
2019-03-10T03:33:16.563Z,96244.08
2019-03-10T03:36:24.934Z,96234.13
2019-03-10T03:39:32.042Z,96230.16
2019-03-10T03:42:00.435Z,96218.58
2019-03-10T03:45:08.787Z,96205.03
2019-03-10T03:47:37.185Z,96196.58
2019-03-10T03:50:45.519Z,96196.08
2019-03-10T03:53:13.914Z,96184.80
2019-03-10T03:55:42.316Z,96188.95
2019-03-10T04:05:55.021Z,96167.66
2019-03-10T04:10:57.251Z,96171.97
2019-03-10T04:13:25.695Z,96170.20
2019-03-10T04:21:16.778Z,96131.67
2019-03-10T04:23:45.178Z,96139.14
2019-03-10T04:26:13.688Z,96134.89
2019-03-10T04:28:42.095Z,96115.07
2019-03-10T04:31:10.499Z,96114.42
2019-03-10T04:33:38.915Z,96115.95
2019-03-10T04:36:07.307Z,96116.12
2019-03-10T04:38:35.697Z,96112.15
2019-03-10T04:43:38.723Z,96106.15
2019-03-10T04:46:07.165Z,96103.30
2019-03-10T04:48:35.620Z,96085.73
2019-03-10T04:51:04.015Z,96086.03
2019-03-10T04:53:32.426Z,96080.06
2019-03-10T04:56:20.083Z,96078.44
2019-03-10T05:04:12.005Z,96072.73
2019-03-10T05:06:40.406Z,96071.41
2019-03-10T05:09:48.763Z,96072.91
2019-03-10T05:12:28.929Z,96069.27
2019-03-10T05:17:31.651Z,96055.09
2019-03-10T05:22:34.047Z,96057.26
2019-03-10T05:25:21.807Z,96042.51
2019-03-10T05:27:50.204Z,96042.17
2019-03-10T05:30:18.609Z,96027.27
2019-03-10T05:32:47.037Z,96017.16
2019-03-10T05:35:15.481Z,96003.55
2019-03-10T05:37:43.826Z,95992.28
2019-03-10T05:45:40.936Z,95959.33
2019-03-10T05:48:09.332Z,95960.27
2019-03-10T05:50:37.749Z,95968.21
2019-03-10T05:53:06.150Z,95966.89
2019-03-10T05:55:34.552Z,95972.19
2019-03-10T06:00:42.536Z,95993.86
2019-03-10T06:05:40.939Z,96008.24
2019-03-10T06:08:09.333Z,95991.80
2019-03-10T06:10:37.804Z,95989.63
2019-03-10T06:13:06.201Z,95976.44
2019-03-10T06:15:34.595Z,95995.80
2019-03-10T06:18:13.160Z,95984.14
2019-03-10T06:20:52.463Z,95968.78
2019-03-10T06:23:20.907Z,95975.56
2019-03-10T06:25:49.325Z,95965.39
2019-03-10T06:28:17.726Z,95944.70
2019-03-10T06:30:46.178Z,95940.97
2019-03-10T06:33:14.561Z,95929.67
2019-03-10T06:35:42.960Z,95923.59
2019-03-10T06:38:11.370Z,95914.73
2019-03-10T06:40:39.759Z,95896.16
2019-03-10T06:43:08.191Z,95888.42
2019-03-10T06:45:36.562Z,95887.63
2019-03-10T06:48:44.873Z,95883.05
2019-03-10T06:51:13.319Z,95872.03
2019-03-10T06:53:41.721Z,95859.73
2019-03-10T06:56:10.113Z,95856.81
2019-03-10T07:01:12.942Z,95848.33
2019-03-10T07:03:41.396Z,95837.11
2019-03-10T07:06:09.796Z,95830.72
2019-03-10T07:08:38.191Z,95816.68
2019-03-10T07:11:06.612Z,95825.44
2019-03-10T07:13:35.001Z,95826.59
2019-03-10T07:16:03.393Z,95810.45
2019-03-10T07:18:31.806Z,95801.88
2019-03-10T07:21:00.214Z,95802.55
2019-03-10T07:23:28.602Z,95800.42
2019-03-10T07:26:16.251Z,95805.19
2019-03-10T07:31:52.983Z,95787.88
2019-03-10T07:34:59.831Z,95783.90
2019-03-10T07:37:47.409Z,95782.11
2019-03-10T07:40:34.926Z,95780.45
2019-03-10T07:43:22.507Z,95774.86
2019-03-10T07:46:10.026Z,95765.95
2019-03-10T07:48:57.639Z,95759.05
2019-03-10T07:57:09.874Z,95752.59
2019-03-10T07:59:57.726Z,95741.04
2019-03-10T08:05:20.751Z,95732.61
2019-03-10T08:08:08.274Z,95736.23
2019-03-10T08:13:34.792Z,95725.02
2019-03-10T08:16:22.306Z,95706.55
2019-03-10T08:21:45.273Z,95696.95
2019-03-10T08:24:32.792Z,95707.84
2019-03-10T08:27:20.349Z,95693.30
2019-03-10T08:30:07.912Z,95695.24
2019-03-10T08:32:55.600Z,95694.52
2019-03-10T08:36:02.449Z,95686.73
2019-03-10T08:41:31.861Z,95677.30
2019-03-10T08:44:19.388Z,95666.70
2019-03-10T08:47:06.930Z,95662.97
2019-03-10T08:52:43.743Z,95667.34
2019-03-10T08:55:31.265Z,95653.86
2019-03-10T08:58:39.626Z,95668.44
2019-03-10T09:01:27.158Z,95664.72
2019-03-10T09:06:50.287Z,95683.59
2019-03-10T09:09:57.174Z,95688.77
2019-03-10T09:12:44.776Z,95683.32
2019-03-10T09:18:21.522Z,95682.03
2019-03-10T09:21:09.020Z,95685.49
2019-03-10T09:23:56.655Z,95685.01
2019-03-10T09:26:44.188Z,95672.28
2019-03-10T09:29:31.753Z,95659.25
2019-03-10T09:35:08.400Z,95664.30
2019-03-10T09:37:55.922Z,95667.19
2019-03-10T09:40:43.522Z,95672.74
2019-03-10T09:43:50.458Z,95649.60
2019-03-10T09:46:38.024Z,95651.22
2019-03-10T09:52:14.646Z,95662.48
2019-03-10T09:55:02.163Z,95660.38
2019-03-10T09:57:49.740Z,95650.97
2019-03-10T10:03:26.363Z,95676.89
2019-03-10T10:06:13.879Z,95675.89
2019-03-10T10:14:20.172Z,95679.24
2019-03-10T10:17:07.694Z,95687.20
2019-03-10T10:19:55.298Z,95687.70
2019-03-10T10:28:26.739Z,95683.73
2019-03-10T10:31:14.264Z,95681.38
2019-03-10T10:39:19.905Z,95709.66
2019-03-10T10:42:07.501Z,95710.36
2019-03-10T10:44:55.054Z,95725.94
2019-03-10T10:47:42.593Z,95715.84
2019-03-10T10:50:50.956Z,95723.50
2019-03-10T10:53:38.473Z,95729.61
2019-03-10T10:59:01.188Z,95726.71
2019-03-10T11:01:48.717Z,95736.61
2019-03-10T11:09:54.171Z,95705.28
2019-03-10T11:12:41.695Z,95687.50
2019-03-10T11:15:50.132Z,95695.00
2019-03-10T11:18:37.807Z,95680.62
2019-03-10T11:21:46.234Z,95665.16
2019-03-10T11:24:33.757Z,95645.44
2019-03-10T11:27:21.396Z,95642.93
2019-03-10T11:30:08.955Z,95633.91
2019-03-10T11:32:56.614Z,95635.23
2019-03-10T11:36:03.695Z,95632.22
2019-03-10T11:41:47.965Z,95610.64
2019-03-10T11:44:34.990Z,95613.17
2019-03-10T11:47:22.538Z,95603.28
2019-03-10T11:50:10.115Z,95578.76
2019-03-10T11:55:32.790Z,95565.37
2019-03-10T11:58:20.326Z,95577.03
2019-03-10T12:01:07.915Z,95563.90
2019-03-10T12:03:55.580Z,95548.16
2019-03-10T12:07:04.184Z,95533.42
2019-03-10T12:09:32.593Z,95492.31
2019-03-10T12:12:01.080Z,95466.45
2019-03-10T12:17:03.395Z,95473.55
2019-03-10T12:19:32.046Z,95475.75
2019-03-10T12:22:12.731Z,95480.27
2019-03-10T12:24:41.464Z,95471.38
2019-03-10T12:27:09.862Z,95476.41
2019-03-10T12:29:49.974Z,95474.50
2019-03-10T12:32:08.820Z,95480.80
2019-03-10T12:34:37.300Z,95472.01
2019-03-10T12:37:05.708Z,95478.42
2019-03-10T12:42:08.185Z,95505.33
2019-03-10T12:47:10.484Z,95489.30
2019-03-10T12:49:38.886Z,95481.20
2019-03-10T12:52:07.410Z,95479.27
2019-03-10T12:54:55.130Z,95480.55
2019-03-10T12:57:23.556Z,95470.80
2019-03-10T12:59:51.965Z,95473.94
2019-03-10T13:02:20.357Z,95463.14
2019-03-10T13:04:48.790Z,95463.63
2019-03-10T13:07:17.194Z,95465.16
2019-03-10T13:09:45.610Z,95488.08
2019-03-10T13:14:58.657Z,95475.84
2019-03-10T13:17:18.596Z,95470.64
2019-03-10T13:19:46.993Z,95474.31
2019-03-10T13:22:15.404Z,95480.95
2019-03-10T13:24:55.764Z,95483.50
2019-03-10T13:27:24.162Z,95487.95
2019-03-10T13:29:52.647Z,95482.91
2019-03-10T13:32:40.358Z,95479.68
2019-03-10T13:35:48.677Z,95474.42
2019-03-10T13:38:17.113Z,95478.69
2019-03-10T13:40:45.537Z,95454.12
2019-03-10T13:43:13.935Z,95483.11
2019-03-10T13:45:42.366Z,95470.88
2019-03-10T13:48:10.771Z,95457.14
2019-03-10T13:50:39.202Z,95459.47
2019-03-10T13:53:07.661Z,95449.70
2019-03-10T13:55:36.057Z,95447.20
2019-03-10T13:58:23.886Z,95460.58
2019-03-10T14:00:52.305Z,95463.91
2019-03-10T14:03:20.703Z,95477.45
2019-03-10T14:08:27.813Z,95418.90
2019-03-10T14:11:15.527Z,95448.39
2019-03-10T14:16:18.163Z,95472.13
2019-03-10T14:18:46.597Z,95441.64
2019-03-10T14:21:15.002Z,95448.19
2019-03-10T14:23:43.409Z,95445.11
2019-03-10T14:26:11.838Z,95473.52
2019-03-10T14:28:47.206Z,95485.81
2019-03-10T14:31:15.607Z,95433.20
2019-03-10T14:33:44.137Z,95471.13
2019-03-10T14:36:12.539Z,95465.58
2019-03-10T14:38:40.957Z,95459.29
2019-03-10T14:43:43.790Z,95485.12
2019-03-10T14:46:31.418Z,95463.34
2019-03-10T14:48:59.827Z,95471.95
2019-03-10T14:51:28.226Z,95454.60
2019-03-10T14:53:56.717Z,95455.66
2019-03-10T14:56:25.121Z,95455.19
2019-03-10T14:58:53.517Z,95495.30
2019-03-10T15:03:55.994Z,95445.53
2019-03-10T15:06:24.383Z,95445.09
2019-03-10T15:08:52.784Z,95422.47
2019-03-10T15:11:21.190Z,95431.91
2019-03-10T15:13:49.766Z,95422.93
2019-03-10T15:16:18.161Z,95437.36
2019-03-10T15:18:46.610Z,95448.62
2019-03-10T15:23:48.985Z,95456.83
2019-03-10T15:26:17.387Z,95456.33
2019-03-10T15:28:45.811Z,95475.14
2019-03-10T15:31:14.207Z,95476.20
2019-03-10T15:33:42.607Z,95499.27
2019-03-10T15:36:19.702Z,95468.95
2019-03-10T15:38:41.274Z,95448.50
2019-03-10T15:41:12.627Z,95467.19
2019-03-10T15:46:34.647Z,95484.69
2019-03-10T15:49:22.333Z,95479.08
2019-03-10T15:51:50.735Z,95502.05
2019-03-10T15:54:19.143Z,95532.58
2019-03-10T15:56:47.575Z,95551.86
2019-03-10T15:59:35.291Z,95552.46
2019-03-10T16:07:31.907Z,95587.76
2019-03-10T16:10:00.423Z,95585.59
2019-03-10T16:15:02.603Z,95547.74
2019-03-10T16:20:45.287Z,95562.88
2019-03-10T16:23:13.725Z,95581.63
2019-03-10T16:25:42.120Z,95584.70
2019-03-10T16:28:10.528Z,95589.52
2019-03-10T16:33:12.886Z,95589.59
2019-03-10T16:35:41.308Z,95622.51
2019-03-10T16:38:09.782Z,95623.32
2019-03-10T16:40:38.185Z,95638.84
2019-03-10T16:43:06.583Z,95634.13
2019-03-10T16:45:35.033Z,95629.41
2019-03-10T16:53:27.215Z,95622.52
2019-03-10T16:56:02.861Z,95637.55
2019-03-10T16:58:25.755Z,95648.36
2019-03-10T17:06:16.039Z,95657.42
2019-03-10T17:08:44.491Z,95655.05
2019-03-10T17:11:12.900Z,95669.13
2019-03-10T17:13:41.290Z,95673.09
2019-03-10T17:18:43.391Z,95676.59
2019-03-10T17:23:45.762Z,95696.67
2019-03-10T17:26:33.459Z,95672.88
2019-03-10T17:29:01.828Z,95700.41
2019-03-10T17:31:30.225Z,95720.39
2019-03-10T17:33:58.682Z,95730.27
2019-03-10T17:36:27.087Z,95735.47
2019-03-10T17:38:55.485Z,95743.80
2019-03-10T17:44:02.958Z,95735.30
2019-03-10T17:46:43.188Z,95741.49
2019-03-10T17:49:01.458Z,95754.13
2019-03-10T17:51:29.884Z,95761.75
2019-03-10T17:53:58.283Z,95752.69
2019-03-10T18:01:55.020Z,95768.86
2019-03-10T18:06:57.313Z,95774.23
2019-03-10T18:09:45.000Z,95808.56
2019-03-10T18:12:13.397Z,95788.38
2019-03-10T18:15:21.836Z,95796.70
2019-03-10T18:18:09.423Z,95781.31
2019-03-10T18:20:37.850Z,95789.70
2019-03-10T18:23:06.250Z,95811.06
2019-03-10T18:25:34.654Z,95804.83
2019-03-10T18:28:43.001Z,95796.06
2019-03-10T18:31:11.387Z,95814.48
2019-03-10T18:33:39.794Z,95807.73
2019-03-10T18:41:20.695Z,95811.38
2019-03-10T18:43:49.127Z,95795.17
2019-03-10T18:46:17.522Z,95817.70
2019-03-10T18:48:45.922Z,95815.56
2019-03-10T18:53:48.222Z,95841.80
2019-03-10T18:56:16.659Z,95819.34
2019-03-10T18:58:45.070Z,95844.19
2019-03-10T19:01:13.462Z,95849.19
2019-03-10T19:03:41.895Z,95858.82
2019-03-10T19:06:10.364Z,95870.63
2019-03-10T19:08:38.769Z,95861.41
2019-03-10T19:11:07.192Z,95860.27
2019-03-10T19:13:35.588Z,95867.40
2019-03-10T19:16:03.992Z,95865.38
2019-03-10T19:21:26.313Z,95895.97
2019-03-10T19:26:28.617Z,95929.09
2019-03-10T19:28:57.011Z,95926.09
2019-03-10T19:31:25.426Z,95958.31
2019-03-10T19:33:53.848Z,95971.80
2019-03-10T19:36:22.261Z,95962.53
2019-03-10T19:38:50.682Z,95953.64
2019-03-10T19:41:19.089Z,95976.95
2019-03-10T19:43:47.490Z,96005.28
2019-03-10T19:49:09.501Z,95966.66
2019-03-10T19:54:11.896Z,95979.28
2019-03-10T19:56:40.324Z,95961.98
2019-03-10T19:59:08.721Z,95981.95
2019-03-10T20:01:37.114Z,95979.65
2019-03-10T20:04:45.457Z,95983.25
2019-03-10T20:07:13.855Z,95982.41
2019-03-10T20:09:42.260Z,95987.67
2019-03-10T20:14:44.535Z,95976.39
2019-03-10T20:19:46.904Z,95991.23
2019-03-10T20:22:15.291Z,95993.06
2019-03-10T20:24:43.739Z,95980.52
2019-03-10T20:27:12.141Z,95982.99
2019-03-10T20:29:40.534Z,95972.28
2019-03-10T20:34:43.366Z,95981.05
2019-03-10T20:37:11.787Z,95981.72
2019-03-10T20:39:40.188Z,95988.49
2019-03-10T20:42:08.580Z,95991.50
2019-03-10T20:44:36.994Z,95998.41
2019-03-10T20:47:05.395Z,96011.48
2019-03-10T20:49:33.786Z,96022.69
2019-03-10T20:52:23.522Z,96023.34
2019-03-10T20:54:51.880Z,96022.17
2019-03-10T20:57:20.272Z,96017.22
2019-03-10T21:02:23.012Z,96015.23
2019-03-10T21:07:26.982Z,96030.27
2019-03-10T21:09:55.373Z,96036.22
2019-03-10T21:12:23.840Z,96036.39
2019-03-10T21:17:26.100Z,96059.01
2019-03-10T21:22:28.410Z,96069.27
2019-03-10T21:24:56.881Z,96110.69
2019-03-10T21:27:25.270Z,96101.13
2019-03-10T21:29:53.665Z,96092.05
2019-03-10T21:34:56.158Z,96112.03
2019-03-10T21:39:58.559Z,96127.56
2019-03-10T21:42:46.407Z,96135.30
2019-03-10T21:45:54.708Z,96131.84
2019-03-10T21:48:42.520Z,96130.37
2019-03-10T21:51:30.239Z,96164.22
2019-03-10T21:56:32.749Z,96165.39
2019-03-10T22:01:35.174Z,96172.15
2019-03-10T22:04:03.566Z,96180.73
2019-03-10T22:06:31.977Z,96178.60
2019-03-10T22:09:00.366Z,96183.70
2019-03-10T22:11:28.762Z,96186.84
2019-03-10T22:13:57.188Z,96205.33
2019-03-10T22:16:25.585Z,96223.00
2019-03-10T22:18:53.974Z,96233.06
2019-03-10T22:21:22.404Z,96246.61
2019-03-10T22:23:58.855Z,96245.61
2019-03-10T22:26:20.919Z,96236.05
2019-03-10T22:31:23.814Z,96256.52
2019-03-10T22:34:11.516Z,96313.97
2019-03-10T22:36:39.910Z,96306.20
2019-03-10T22:39:27.611Z,96306.06
2019-03-10T22:41:56.070Z,96334.94
2019-03-10T22:44:24.465Z,96337.20
2019-03-10T22:46:52.874Z,96358.02
2019-03-10T22:49:21.270Z,96361.86
2019-03-10T22:51:49.665Z,96349.87
2019-03-10T22:56:52.035Z,96330.72
2019-03-10T22:59:20.463Z,96331.44
2019-03-10T23:02:08.055Z,96346.98
2019-03-10T23:04:36.484Z,96351.97
2019-03-10T23:07:24.200Z,96353.28
2019-03-10T23:12:46.329Z,96376.27
2019-03-10T23:15:54.683Z,96383.08
2019-03-10T23:18:23.075Z,96388.06
2019-03-10T23:20:51.536Z,96394.33
2019-03-10T23:23:20.049Z,96408.70
2019-03-10T23:25:48.442Z,96403.84
2019-03-10T23:28:16.837Z,96424.45
2019-03-10T23:33:19.671Z,96415.66
2019-03-10T23:35:48.062Z,96419.97
2019-03-10T23:38:16.479Z,96435.27
2019-03-10T23:40:44.889Z,96412.53
2019-03-10T23:43:13.289Z,96425.77
2019-03-10T23:48:15.630Z,96417.23
2019-03-10T23:53:18.371Z,96438.30
2019-03-10T23:55:46.801Z,96451.61
2019-03-10T23:58:15.201Z,96449.13
